Time;durP1;ratioP1;P1;durP2;ratioP2;P2;SDS_P1;SDS_P2;PMS_P1;PMS_P2;Temp;Humidity;BMP_temperature;BMP_pressure;BME280_temperature;BME280_humidity;BME280_pressure;Samples;Min_cycle;Max_cycle;Signal;HPM_P1;HPM_P2
2022/06/30 00:00:17;;;;;;;16.87;14.90;;;19.80;62.40;;;;;;5036296;28;20896;-74
2022/06/30 00:02:43;;;;;;;18.70;15.03;;;19.80;63.20;;;;;;5054279;28;20787;-75
2022/06/30 00:05:08;;;;;;;16.65;13.63;;;19.90;61.80;;;;;;5054055;28;20396;-74
2022/06/30 00:07:34;;;;;;;17.37;14.50;;;20.10;59.00;;;;;;5054099;28;20413;-74
2022/06/30 00:10:00;;;;;;;18.70;15.37;;;20.00;59.00;;;;;;5053866;28;20411;-74
2022/06/30 00:12:26;;;;;;;18.30;14.50;;;20.20;58.10;;;;;;5053938;28;20885;-74
2022/06/30 00:14:51;;;;;;;18.60;13.90;;;20.30;56.40;;;;;;5053859;28;20468;-75
2022/06/30 00:17:17;;;;;;;17.20;14.50;;;20.20;57.10;;;;;;5054020;28;20373;-75
2022/06/30 00:19:45;;;;;;;18.93;14.37;;;20.20;58.10;;;;;;5035852;28;20378;-75
2022/06/30 00:22:11;;;;;;;21.05;14.00;;;20.40;57.50;;;;;;5054247;28;20381;-75
2022/06/30 00:24:37;;;;;;;17.38;14.75;;;20.20;56.60;;;;;;5053791;28;20425;-73
2022/06/30 00:27:04;;;;;;;18.35;14.00;;;20.20;57.60;;;;;;5053579;28;20381;-74
2022/06/30 00:29:30;;;;;;;19.83;15.00;;;20.10;58.20;;;;;;5053679;28;20390;-74
2022/06/30 00:31:55;;;;;;;18.57;14.67;;;20.10;58.60;;;;;;5053428;28;20440;-74
2022/06/30 00:34:21;;;;;;;21.65;15.27;;;20.10;58.60;;;;;;5053422;28;20464;-75
2022/06/30 00:36:46;;;;;;;22.33;15.30;;;20.20;57.60;;;;;;5053556;28;20716;-75
2022/06/30 00:39:13;;;;;;;16.50;14.37;;;20.30;56.60;;;;;;5053651;28;20420;-75
2022/06/30 00:41:40;;;;;;;17.48;14.85;;;20.20;57.10;;;;;;5053349;28;20413;-75
2022/06/30 00:44:07;;;;;;;18.50;14.70;;;20.30;57.00;;;;;;5052725;28;20512;-75
2022/06/30 00:46:33;;;;;;;20.67;14.57;;;20.30;56.60;;;;;;5053757;28;20381;-75
2022/06/30 00:48:59;;;;;;;19.05;14.20;;;20.30;56.70;;;;;;5053341;28;20389;-75
2022/06/30 00:51:25;;;;;;;24.27;15.05;;;20.40;56.40;;;;;;5053311;28;20412;-74
2022/06/30 00:53:54;;;;;;;17.53;14.70;;;20.30;57.10;;;;;;5035135;28;20398;-75
2022/06/30 00:56:21;;;;;;;20.27;15.35;;;20.30;57.50;;;;;;5034992;28;20390;-73
2022/06/30 00:58:48;;;;;;;22.15;15.18;;;20.30;56.60;;;;;;5053199;28;20385;-75
2022/06/30 01:01:17;;;;;;;20.02;14.68;;;20.20;57.70;;;;;;5052837;28;20385;-73
2022/06/30 01:03:43;;;;;;;18.60;14.70;;;20.20;57.70;;;;;;5052840;28;20400;-76
2022/06/30 01:06:10;;;;;;;18.38;15.20;;;20.10;58.30;;;;;;5052847;28;20389;-74
2022/06/30 01:08:36;;;;;;;18.40;14.30;;;20.10;58.90;;;;;;5052737;28;20431;-74
2022/06/30 01:13:47;;;;;;;20.27;14.68;;;20.20;58.10;;;;;;5053171;28;20380;-75
2022/06/30 01:16:13;;;;;;;16.33;13.98;;;20.20;57.60;;;;;;5052639;28;20385;-75
2022/06/30 01:18:39;;;;;;;17.92;13.57;;;20.30;56.90;;;;;;5034795;28;20460;-75
2022/06/30 01:21:05;;;;;;;17.02;14.00;;;20.30;56.80;;;;;;5052387;28;20772;-75
2022/06/30 01:23:30;;;;;;;21.95;13.93;;;20.20;58.20;;;;;;5052886;28;20800;-75
2022/06/30 01:25:56;;;;;;;18.93;14.37;;;20.20;58.30;;;;;;5052208;28;20439;-75
2022/06/30 01:28:22;;;;;;;18.03;14.70;;;20.30;58.50;;;;;;5034505;28;20390;-75
2022/06/30 01:30:47;;;;;;;16.98;14.07;;;20.30;58.50;;;;;;5052309;28;20964;-75
2022/06/30 01:33:13;;;;;;;18.63;14.60;;;20.30;58.70;;;;;;5052196;28;20377;-75
2022/06/30 01:35:39;;;;;;;18.33;14.90;;;20.20;60.70;;;;;;5052269;28;20386;-75
2022/06/30 01:38:05;;;;;;;19.90;14.40;;;20.10;61.00;;;;;;5052014;28;20492;-75
2022/06/30 01:40:34;;;;;;;17.00;14.60;;;20.00;62.00;;;;;;5052134;28;20501;-75
2022/06/30 01:43:00;;;;;;;22.53;15.00;;;20.00;63.20;;;;;;5052345;28;20535;-75
2022/06/30 01:45:26;;;;;;;18.83;15.00;;;19.90;63.60;;;;;;5034513;28;20385;-76
2022/06/30 01:47:53;;;;;;;19.38;14.70;;;19.90;63.90;;;;;;5052053;28;20385;-76
2022/06/30 01:50:29;;;;;;;17.15;14.93;;;19.80;65.40;;;;;;5034439;28;20413;-75
2022/06/30 01:52:56;;;;;;;21.50;15.48;;;19.70;66.60;;;;;;5052153;28;20448;-74
2022/06/30 01:55:22;;;;;;;20.80;15.25;;;19.60;68.70;;;;;;5051225;28;20378;-76
2022/06/30 01:57:48;;;;;;;17.00;14.30;;;19.60;68.30;;;;;;5034158;28;20388;-76
2022/06/30 02:00:17;;;;;;;19.90;15.38;;;19.50;69.50;;;;;;5051921;28;20396;-75
2022/06/30 02:02:43;;;;;;;22.13;16.60;;;19.40;71.10;;;;;;5051481;28;20473;-76
2022/06/30 02:05:10;;;;;;;22.10;16.30;;;19.30;73.50;;;;;;5051502;28;20455;-76
2022/06/30 02:07:36;;;;;;;19.98;16.58;;;19.30;73.60;;;;;;5033752;28;20389;-76
2022/06/30 02:10:07;;;;;;;20.47;16.80;;;19.20;75.40;;;;;;5051817;28;20846;-76
2022/06/30 02:12:45;;;;;;;19.60;16.58;;;19.20;76.20;;;;;;5051580;28;20413;-76
2022/06/30 02:15:12;;;;;;;20.95;17.00;;;19.10;77.60;;;;;;5051291;28;20434;-76
2022/06/30 02:17:39;;;;;;;21.35;16.67;;;19.10;78.60;;;;;;5051485;28;20389;-75
2022/06/30 02:20:07;;;;;;;19.05;16.45;;;19.10;78.70;;;;;;5051407;28;20377;-76
2022/06/30 02:22:33;;;;;;;19.73;17.10;;;19.10;79.40;;;;;;5051216;28;20879;-75
2022/06/30 02:24:59;;;;;;;20.38;17.58;;;19.00;80.40;;;;;;5051373;28;20401;-75
2022/06/30 02:27:24;;;;;;;22.05;18.10;;;18.90;83.00;;;;;;5051431;28;20877;-75
2022/06/30 02:29:51;;;;;;;23.67;18.70;;;18.90;83.60;;;;;;5051283;28;20378;-76
2022/06/30 02:32:18;;;;;;;26.67;18.90;;;18.90;84.10;;;;;;5051014;28;20409;-74
2022/06/30 02:34:44;;;;;;;23.27;18.20;;;18.80;85.50;;;;;;5051179;28;20405;-74
2022/06/30 02:37:09;;;;;;;21.27;18.80;;;18.80;87.00;;;;;;5051229;28;20388;-74
2022/06/30 02:39:35;;;;;;;21.63;18.90;;;18.80;86.60;;;;;;5051149;28;20383;-74
2022/06/30 02:42:00;;;;;;;25.97;18.20;;;18.70;87.70;;;;;;5051157;28;20394;-75
2022/06/30 02:44:26;;;;;;;22.40;18.40;;;18.70;88.50;;;;;;5051140;28;20423;-75
2022/06/30 02:46:52;;;;;;;25.27;18.90;;;18.70;89.60;;;;;;5051361;28;20450;-75
2022/06/30 02:49:19;;;;;;;27.37;19.23;;;18.70;90.00;;;;;;5051255;28;20385;-75
2022/06/30 02:51:44;;;;;;;25.73;19.40;;;18.70;89.50;;;;;;5050972;28;20397;-75
2022/06/30 02:54:10;;;;;;;24.97;18.80;;;18.70;90.20;;;;;;5033010;28;20867;-75
2022/06/30 02:56:35;;;;;;;25.10;19.20;;;18.70;90.20;;;;;;5051357;28;20431;-75
2022/06/30 02:59:01;;;;;;;24.27;19.08;;;18.70;89.60;;;;;;5051545;28;20409;-75
2022/06/30 03:01:27;;;;;;;27.58;20.00;;;18.70;90.10;;;;;;5050882;28;20386;-75
2022/06/30 03:03:52;;;;;;;24.83;19.07;;;18.80;90.30;;;;;;5051000;28;20421;-75
2022/06/30 03:06:18;;;;;;;27.73;20.23;;;18.70;90.30;;;;;;5050483;28;20789;-75
2022/06/30 03:08:44;;;;;;;24.85;19.50;;;18.80;89.90;;;;;;5050810;28;20450;-75
2022/06/30 03:11:16;;;;;;;25.83;20.37;;;18.80;90.00;;;;;;5050417;28;20415;-75
2022/06/30 03:13:43;;;;;;;24.75;19.63;;;18.80;89.60;;;;;;5050761;28;20377;-75
2022/06/30 03:16:08;;;;;;;26.92;20.27;;;18.90;89.10;;;;;;5032650;28;20386;-75
2022/06/30 03:18:34;;;;;;;22.67;19.43;;;18.90;88.70;;;;;;5050810;28;20388;-75
2022/06/30 03:20:59;;;;;;;24.07;19.10;;;18.90;88.10;;;;;;5032514;28;20404;-74
2022/06/30 03:25:20;;;;;;;24.42;17.98;;;18.10;87.20;;;;;;5088188;27;20334;-75
2022/06/30 03:27:46;;;;;;;24.27;19.00;;;18.90;87.90;;;;;;5088358;28;20759;-74
2022/06/30 03:30:12;;;;;;;25.67;18.73;;;19.00;86.60;;;;;;5088528;28;20377;-75
2022/06/30 03:32:38;;;;;;;23.70;17.95;;;19.00;86.60;;;;;;5086918;28;20775;-76
2022/06/30 03:35:04;;;;;;;24.17;18.15;;;19.00;86.70;;;;;;5088064;28;20867;-74
2022/06/30 03:37:30;;;;;;;23.00;18.27;;;19.00;86.10;;;;;;5102268;22;20479;-72
2022/06/30 03:39:56;;;;;;;24.53;18.53;;;19.00;86.10;;;;;;5094194;28;20375;-72
2022/06/30 03:42:21;;;;;;;25.30;18.90;;;19.00;86.60;;;;;;5088552;28;20875;-72
2022/06/30 03:44:47;;;;;;;25.27;18.27;;;19.00;86.30;;;;;;5088778;28;20399;-72
2022/06/30 03:47:12;;;;;;;25.67;18.40;;;19.00;86.90;;;;;;5103406;28;20466;-72
2022/06/30 03:49:38;;;;;;;27.10;18.20;;;18.70;91.90;;;;;;5108589;28;20377;-73
2022/06/30 03:52:04;;;;;;;27.02;17.35;;;19.00;85.90;;;;;;5109784;28;20381;-74
2022/06/30 03:54:29;;;;;;;23.35;18.73;;;19.00;86.40;;;;;;5110484;28;20396;-73
2022/06/30 03:56:55;;;;;;;20.43;17.87;;;19.00;87.00;;;;;;5109862;28;20373;-74
2022/06/30 03:59:21;;;;;;;24.33;17.77;;;19.00;87.70;;;;;;5109243;28;20420;-72
2022/06/30 04:01:47;;;;;;;22.50;18.67;;;18.90;88.80;;;;;;5091279;28;20396;-74
2022/06/30 04:04:12;;;;;;;24.77;18.48;;;18.90;89.00;;;;;;5091186;28;20484;-71
2022/06/30 04:06:38;;;;;;;24.45;18.60;;;18.70;91.40;;;;;;5109123;28;20413;-72
2022/06/30 04:09:03;;;;;;;28.03;17.73;;;19.10;87.90;;;;;;5109093;28;20797;-74
2022/06/30 04:11:29;;;;;;;27.20;19.60;;;19.10;87.10;;;;;;5108215;28;20742;-73
2022/06/30 04:13:55;;;;;;;25.05;19.08;;;19.10;88.10;;;;;;5108124;28;20377;-71
2022/06/30 04:16:20;;;;;;;27.67;18.93;;;19.10;88.40;;;;;;5107567;28;20389;-74
2022/06/30 04:18:46;;;;;;;25.17;19.27;;;19.20;87.40;;;;;;5108191;28;20381;-72
2022/06/30 04:21:13;;;;;;;28.75;19.75;;;19.20;86.60;;;;;;5107387;28;20381;-72
2022/06/30 04:23:38;;;;;;;26.45;19.55;;;19.20;86.50;;;;;;5088860;28;20405;-72
2022/06/30 04:26:04;;;;;;;26.10;18.90;;;19.30;85.30;;;;;;5109075;28;20460;-73
2022/06/30 04:28:30;;;;;;;25.17;19.20;;;19.30;85.50;;;;;;5109107;28;20378;-72
2022/06/30 04:33:39;;;;;;;22.88;19.23;;;19.30;85.40;;;;;;5107598;28;20393;-72
2022/06/30 04:36:05;;;;;;;28.38;20.27;;;19.30;85.10;;;;;;5097200;28;20398;-73
2022/06/30 04:38:31;;;;;;;26.35;20.35;;;19.40;84.80;;;;;;5094577;28;20386;-73
2022/06/30 04:43:40;;;;;;;24.92;19.63;;;19.50;83.50;;;;;;5094961;28;20554;-72
2022/06/30 04:46:06;;;;;;;25.90;19.53;;;19.60;81.70;;;;;;5093946;28;20890;-73
2022/06/30 04:48:31;;;;;;;25.88;19.77;;;19.60;81.30;;;;;;5094145;28;20389;-74
2022/06/30 04:50:57;;;;;;;23.77;19.23;;;19.60;81.40;;;;;;5093984;28;20412;-73
2022/06/30 04:53:22;;;;;;;24.83;18.15;;;19.70;80.50;;;;;;5076562;28;20390;-72
2022/06/30 04:55:49;;;;;;;25.33;19.67;;;19.80;77.50;;;;;;5095115;28;20432;-72
2022/06/30 04:58:14;;;;;;;24.10;18.90;;;19.80;77.20;;;;;;5094226;28;20540;-73
2022/06/30 05:00:40;;;;;;;26.67;19.53;;;19.80;77.80;;;;;;5094110;28;20445;-71
2022/06/30 05:03:05;;;;;;;26.23;19.60;;;19.80;77.60;;;;;;5093460;28;20866;-72
2022/06/30 05:05:31;;;;;;;27.50;19.77;;;19.90;77.40;;;;;;5093774;28;20738;-73
2022/06/30 05:07:56;;;;;;;24.93;19.40;;;19.90;77.30;;;;;;5094268;28;20378;-72
2022/06/30 05:10:22;;;;;;;26.27;19.23;;;19.90;77.10;;;;;;5093593;28;20385;-72
2022/06/30 05:12:48;;;;;;;27.70;19.60;;;20.00;76.70;;;;;;5093307;28;20375;-72
2022/06/30 05:15:13;;;;;;;25.57;18.47;;;20.10;76.20;;;;;;5092997;28;20739;-73
2022/06/30 05:17:39;;;;;;;28.45;19.02;;;20.10;76.10;;;;;;5092973;28;20921;-72
2022/06/30 05:20:05;;;;;;;24.30;18.57;;;20.30;74.40;;;;;;5092993;28;20789;-72
2022/06/30 05:22:30;;;;;;;26.17;19.67;;;20.30;73.20;;;;;;5092920;28;20393;-73
2022/06/30 05:27:45;;;;;;;20.85;18.42;;;20.40;73.90;;;;;;5083644;28;20388;-72
2022/06/30 05:30:11;;;;;;;24.23;18.13;;;20.60;71.30;;;;;;5073010;28;20434;-73
2022/06/30 05:32:37;;;;;;;25.27;17.73;;;20.70;70.90;;;;;;5079306;28;20449;-74
2022/06/30 05:35:03;;;;;;;24.15;17.67;;;20.80;69.40;;;;;;5096702;28;20387;-75
2022/06/30 05:37:29;;;;;;;23.70;18.38;;;20.80;70.00;;;;;;5079875;28;20486;-74
2022/06/30 05:39:55;;;;;;;26.70;18.00;;;20.90;69.60;;;;;;5077659;28;20482;-75
2022/06/30 05:42:20;;;;;;;21.88;18.10;;;20.90;68.00;;;;;;5092971;28;20450;-76
2022/06/30 05:44:46;;;;;;;23.90;17.80;;;21.00;67.10;;;;;;5094728;28;20910;-76
2022/06/30 05:47:11;;;;;;;26.60;18.60;;;21.10;66.50;;;;;;5095820;28;20455;-77
2022/06/30 05:49:37;;;;;;;24.50;18.60;;;21.20;64.90;;;;;;5070811;28;20398;-75
2022/06/30 05:52:04;;;;;;;24.80;17.83;;;21.20;63.20;;;;;;5072705;28;20454;-74
2022/06/30 05:54:29;;;;;;;21.80;17.95;;;21.30;62.50;;;;;;5071643;28;20445;-75
2022/06/30 05:56:55;;;;;;;19.93;16.27;;;21.40;61.40;;;;;;5072403;28;20779;-75
2022/06/30 05:59:21;;;;;;;24.03;17.00;;;21.50;60.90;;;;;;5072816;28;20388;-74
2022/06/30 06:01:46;;;;;;;23.33;16.83;;;21.50;59.70;;;;;;5086457;28;20415;-76
2022/06/30 06:04:12;;;;;;;28.10;16.47;;;21.60;58.00;;;;;;5060059;28;20420;-75
2022/06/30 06:06:37;;;;;;;25.73;16.33;;;21.70;55.00;;;;;;5068285;28;20387;-75
2022/06/30 06:09:03;;;;;;;19.52;16.15;;;21.80;55.30;;;;;;5069982;28;20733;-76
2022/06/30 06:11:30;;;;;;;18.77;15.73;;;21.90;54.10;;;;;;5084606;28;20425;-76
2022/06/30 06:13:56;;;;;;;23.55;17.25;;;21.90;54.30;;;;;;5090734;28;20401;-74
2022/06/30 06:16:22;;;;;;;20.33;15.90;;;21.90;53.00;;;;;;5081741;28;20760;-75
2022/06/30 06:18:47;;;;;;;20.87;15.60;;;22.10;52.40;;;;;;5085699;28;20381;-76
2022/06/30 06:21:13;;;;;;;20.02;15.82;;;22.10;51.90;;;;;;5092289;28;20397;-77
2022/06/30 06:23:38;;;;;;;21.60;15.57;;;22.20;50.60;;;;;;5072724;28;20419;-76
2022/06/30 06:26:04;;;;;;;17.85;15.50;;;22.30;50.10;;;;;;5075513;28;20395;-75
2022/06/30 06:31:14;;;;;;;19.13;15.30;;;22.50;48.40;;;;;;5090972;28;20388;-75
2022/06/30 06:33:40;;;;;;;26.77;17.83;;;22.50;48.30;;;;;;5088868;28;20758;-76
2022/06/30 06:36:05;;;;;;;22.50;17.10;;;22.60;48.70;;;;;;5081756;28;20409;-75
2022/06/30 06:38:31;;;;;;;22.05;16.73;;;22.60;48.60;;;;;;5082208;28;20402;-76
2022/06/30 06:40:57;;;;;;;19.60;14.97;;;22.80;47.60;;;;;;5085725;28;20477;-76
2022/06/30 06:43:22;;;;;;;24.10;16.67;;;23.00;46.60;;;;;;5085895;28;20482;-74
2022/06/30 06:45:48;;;;;;;21.77;14.40;;;23.00;44.80;;;;;;5068731;28;20801;-74
2022/06/30 06:48:13;;;;;;;18.00;14.70;;;23.00;44.30;;;;;;5068909;28;20754;-75
2022/06/30 06:50:39;;;;;;;17.17;14.30;;;23.00;43.60;;;;;;5076068;28;20392;-76
2022/06/30 06:53:05;;;;;;;19.00;14.43;;;23.10;43.40;;;;;;5076984;28;20445;-74
2022/06/30 06:55:30;;;;;;;16.63;13.80;;;23.10;43.10;;;;;;5072759;28;20438;-77
2022/06/30 06:57:57;;;;;;;15.70;13.00;;;;;;;;;;5081177;28;20409;-75
2022/06/30 07:00:22;;;;;;;17.60;12.80;;;23.40;39.20;;;;;;5084263;28;20390;-75
2022/06/30 07:02:48;;;;;;;20.00;12.60;;;23.70;38.30;;;;;;5090914;28;20382;-75
2022/06/30 07:05:13;;;;;;;20.67;13.15;;;23.70;38.20;;;;;;5072048;28;20799;-74
2022/06/30 07:07:39;;;;;;;18.93;13.63;;;23.80;37.30;;;;;;5070847;28;20490;-74
2022/06/30 07:10:06;;;;;;;14.70;10.07;;;24.10;32.10;;;;;;5075800;28;20390;-75
2022/06/30 07:12:32;;;;;;;13.90;10.13;;;24.10;30.90;;;;;;5074182;28;20385;-74
2022/06/30 07:14:58;;;;;;;16.10;9.82;;;24.30;30.00;;;;;;5092672;28;20393;-75
2022/06/30 07:17:24;;;;;;;14.88;10.30;;;24.30;29.70;;;;;;5090911;28;20382;-74
2022/06/30 07:19:49;;;;;;;17.60;10.97;;;24.20;30.00;;;;;;5088603;28;20412;-75
2022/06/30 07:22:16;;;;;;;18.98;10.90;;;24.20;30.30;;;;;;5090468;28;20413;-75
2022/06/30 07:24:42;;;;;;;19.33;10.95;;;24.30;29.90;;;;;;5090416;28;20402;-75
2022/06/30 07:27:08;;;;;;;22.85;12.15;;;24.40;29.80;;;;;;5072583;28;20800;-75
2022/06/30 07:29:33;;;;;;;12.20;7.80;;;24.30;30.70;;;;;;5091022;28;20421;-75
2022/06/30 07:31:59;;;;;;;10.18;7.95;;;24.30;27.00;;;;;;5090548;28;20380;-74
2022/06/30 07:34:24;;;;;;;15.30;7.70;;;24.40;25.30;;;;;;5090805;28;20877;-75
2022/06/30 07:36:50;;;;;;;11.95;7.55;;;24.60;23.80;;;;;;5090516;28;20397;-76
2022/06/30 07:39:16;;;;;;;14.40;7.70;;;24.80;23.00;;;;;;5090734;28;20493;-75
2022/06/30 07:41:42;;;;;;;10.93;7.07;;;24.70;21.70;;;;;;5090682;28;20382;-74
2022/06/30 07:44:07;;;;;;;9.43;6.72;;;24.70;21.50;;;;;;5090551;28;20425;-74
2022/06/30 07:46:33;;;;;;;14.50;7.60;;;24.60;21.80;;;;;;5090773;28;20386;-75
2022/06/30 07:48:58;;;;;;;10.80;6.68;;;24.70;22.20;;;;;;5090763;28;20410;-74
2022/06/30 07:51:24;;;;;;;12.47;7.60;;;24.70;21.40;;;;;;5090436;28;20378;-74
2022/06/30 07:53:50;;;;;;;12.85;7.10;;;24.80;21.20;;;;;;5072401;28;20382;-75
2022/06/30 07:56:16;;;;;;;15.03;8.70;;;24.80;21.50;;;;;;5090452;28;20441;-75
2022/06/30 07:58:41;;;;;;;11.35;8.18;;;24.80;22.40;;;;;;5090754;28;20378;-75
2022/06/30 08:01:07;;;;;;;12.85;7.63;;;24.90;23.00;;;;;;5091938;28;20389;-74
2022/06/30 08:03:33;;;;;;;11.67;8.57;;;25.10;21.00;;;;;;5095426;28;20397;-75
2022/06/30 08:05:58;;;;;;;11.95;9.10;;;25.30;21.90;;;;;;5099007;28;20388;-75
2022/06/30 08:08:24;;;;;;;18.23;9.60;;;25.20;22.20;;;;;;5096209;28;20377;-77
2022/06/30 08:10:50;;;;;;;16.02;8.80;;;25.10;22.00;;;;;;5096548;28;20873;-76
2022/06/30 08:13:15;;;;;;;14.88;8.82;;;25.30;21.10;;;;;;5093112;28;20403;-76
2022/06/30 08:15:41;;;;;;;15.90;9.00;;;25.50;20.60;;;;;;5076098;28;20741;-77
2022/06/30 08:18:07;;;;;;;18.30;9.47;;;25.30;20.80;;;;;;5075164;28;20418;-76
2022/06/30 08:20:33;;;;;;;17.13;8.95;;;25.30;21.30;;;;;;5086010;28;20401;-76
2022/06/30 08:22:59;;;;;;;21.50;9.80;;;25.70;21.40;;;;;;5075046;28;20410;-77
2022/06/30 08:25:25;;;;;;;14.00;8.90;;;25.60;21.00;;;;;;5077301;28;20412;-76
2022/06/30 08:27:51;;;;;;;14.27;9.18;;;25.70;21.10;;;;;;5077509;28;20439;-75
2022/06/30 08:30:17;;;;;;;16.23;9.75;;;25.70;21.20;;;;;;5072380;28;20529;-77
2022/06/30 08:32:43;;;;;;;15.68;9.80;;;25.80;20.60;;;;;;5084122;28;20389;-77
2022/06/30 08:35:09;;;;;;;18.42;9.90;;;26.00;20.00;;;;;;5091141;28;20966;-77
2022/06/30 08:37:35;;;;;;;14.93;9.40;;;25.90;20.20;;;;;;5090531;28;20423;-76
2022/06/30 08:42:46;;;;;;;14.40;8.23;;;26.20;19.60;;;;;;5086296;28;20422;-76
2022/06/30 08:45:13;;;;;;;30.25;6.72;;;26.20;19.40;;;;;;5082281;28;21050;-77
2022/06/30 08:47:40;;;;;;;16.80;6.85;;;26.10;18.70;;;;;;5087301;28;20496;-76
2022/06/30 08:50:08;;;;;;;14.35;6.90;;;26.00;19.00;;;;;;5072774;28;20380;-77
2022/06/30 08:52:53;;;;;;;8.65;6.88;;;26.20;18.40;;;;;;5090714;28;20378;-77
2022/06/30 08:55:23;;;;;;;12.68;6.00;;;26.40;17.10;;;;;;5075935;28;20395;-77
2022/06/30 08:57:51;;;;;;;13.48;6.45;;;26.30;17.30;;;;;;5092281;28;20401;-77
2022/06/30 09:00:17;;;;;;;8.17;5.70;;;26.30;17.40;;;;;;5094440;28;20390;-76
2022/06/30 09:02:44;;;;;;;9.25;5.20;;;26.30;17.10;;;;;;5095711;28;20397;-76
2022/06/30 09:05:10;;;;;;;8.25;5.53;;;26.30;17.00;;;;;;5073512;28;20497;-76
2022/06/30 09:07:35;;;;;;;14.82;5.60;;;26.60;16.60;;;;;;5091343;28;20453;-76
2022/06/30 09:10:03;;;;;;;11.93;5.80;;;26.80;15.10;;;;;;5063946;28;20395;-76
2022/06/30 09:12:28;;;;;;;10.05;5.70;;;26.60;15.70;;;;;;5073276;28;20748;-75
2022/06/30 09:14:54;;;;;;;14.27;6.67;;;26.60;18.30;;;;;;5071482;28;20388;-75
2022/06/30 09:17:23;;;;;;;13.73;5.63;;;26.50;17.10;;;;;;5073556;28;20388;-74
2022/06/30 09:19:58;;;;;;;11.15;5.28;;;26.60;16.70;;;;;;5081467;28;20429;-77
2022/06/30 09:22:29;;;;;;;12.60;5.23;;;26.70;16.20;;;;;;5092378;28;20781;-76
2022/06/30 09:24:57;;;;;;;12.65;5.00;;;26.80;16.00;;;;;;5084648;28;20410;-76
2022/06/30 09:27:24;;;;;;;10.40;5.33;;;27.00;16.00;;;;;;5071316;28;20449;-76
2022/06/30 09:29:52;;;;;;;11.60;5.50;;;27.10;15.80;;;;;;5083604;28;20414;-77
2022/06/30 09:32:19;;;;;;;12.00;5.88;;;27.00;15.20;;;;;;5087344;28;20425;-76
2022/06/30 09:34:46;;;;;;;13.05;4.90;;;27.10;15.30;;;;;;5070619;28;20388;-76
2022/06/30 09:37:18;;;;;;;8.32;5.18;;;27.30;14.10;;;;;;5106038;22;20522;-75
2022/06/30 09:39:45;;;;;;;10.20;4.80;;;27.30;14.90;;;;;;5082934;28;20456;-73
2022/06/30 09:42:11;;;;;;;5.90;4.10;;;27.40;14.30;;;;;;5116882;28;20384;-74
2022/06/30 09:44:37;;;;;;;7.32;4.30;;;27.30;14.30;;;;;;5115499;28;20404;-74
2022/06/30 09:47:10;;;;;;;11.60;4.50;;;27.30;13.50;;;;;;5098925;28;20384;-75
2022/06/30 09:49:40;;;;;;;9.40;5.30;;;27.30;13.80;;;;;;5105130;28;20396;-75
2022/06/30 09:52:21;;;;;;;7.37;4.37;;;27.20;13.90;;;;;;5106285;28;20422;-74
2022/06/30 09:55:03;;;;;;;7.97;4.50;;;27.20;14.40;;;;;;5117486;28;20476;-76
2022/06/30 09:57:31;;;;;;;13.45;4.90;;;27.60;13.60;;;;;;5101487;28;20415;-75
2022/06/30 10:00:05;;;;;;;9.88;4.70;;;27.90;13.70;;;;;;5107129;28;20390;-74
2022/06/30 10:02:39;;;;;;;6.97;4.20;;;27.90;12.90;;;;;;5111245;28;20447;-74
2022/06/30 10:05:07;;;;;;;9.40;4.05;;;28.00;13.00;;;;;;5099942;28;20406;-74
2022/06/30 10:07:35;;;;;;;9.48;4.05;;;28.00;12.90;;;;;;5093923;28;20390;-74
2022/06/30 10:10:04;;;;;;;9.90;3.90;;;28.00;12.80;;;;;;5108929;28;20407;-75
2022/06/30 10:12:30;;;;;;;11.30;4.10;;;27.60;13.30;;;;;;5120421;28;20394;-74
2022/06/30 10:14:56;;;;;;;10.18;4.03;;;27.50;13.60;;;;;;5091612;28;20402;-75
2022/06/30 10:17:24;;;;;;;11.83;3.90;;;27.60;13.40;;;;;;5056701;28;20490;-74
2022/06/30 10:19:52;;;;;;;9.10;3.70;;;27.70;12.50;;;;;;5055363;28;20604;-73
2022/06/30 10:22:19;;;;;;;8.50;3.30;;;27.70;12.00;;;;;;5072896;28;20394;-75
2022/06/30 10:24:46;;;;;;;7.63;3.42;;;27.90;11.30;;;;;;5055697;28;20403;-74
2022/06/30 10:27:13;;;;;;;6.60;3.53;;;27.70;11.60;;;;;;5055397;28;20407;-74
2022/06/30 10:29:51;;;;;;;8.38;3.75;;;27.50;12.30;;;;;;5073811;28;20737;-74
2022/06/30 10:32:41;;;;;;;5.32;3.80;;;27.60;12.50;;;;;;5073115;28;20392;-75
2022/06/30 10:35:41;;;;;;;8.75;3.15;;;27.70;11.80;;;;;;5073204;28;20450;-75
2022/06/30 10:38:12;;;;;;;4.32;2.90;;;27.90;11.80;;;;;;5051111;28;20482;-75
2022/06/30 10:40:54;;;;;;;5.32;3.10;;;28.20;10.70;;;;;;5073284;28;20380;-75
2022/06/30 10:43:20;;;;;;;8.20;3.30;;;28.30;10.80;;;;;;5055847;28;20391;-74
2022/06/30 10:45:56;;;;;;;9.75;3.90;;;28.40;11.50;;;;;;5074185;28;20421;-74
2022/06/30 10:48:22;;;;;;;6.95;3.63;;;28.20;12.20;;;;;;5073694;28;20375;-74
2022/06/30 10:50:49;;;;;;;6.80;3.80;;;28.20;12.50;;;;;;5054983;28;20383;-75
2022/06/30 10:53:37;;;;;;;8.80;3.70;;;28.40;12.10;;;;;;5073911;28;20384;-76
2022/06/30 10:56:02;;;;;;;8.20;4.15;;;28.30;11.80;;;;;;5076067;28;20741;-74
2022/06/30 10:58:28;;;;;;;9.43;4.13;;;28.50;12.20;;;;;;5078584;28;20384;-75
2022/06/30 11:01:14;;;;;;;5.65;3.38;;;28.60;11.30;;;;;;5056426;28;20909;-74
2022/06/30 11:03:39;;;;;;;8.00;4.00;;;28.40;12.00;;;;;;5073023;28;20407;-75
2022/06/30 11:06:07;;;;;;;6.03;4.10;;;28.40;11.30;;;;;;5054786;28;20483;-75
2022/06/30 11:08:36;;;;;;;9.43;4.55;;;28.50;11.90;;;;;;5056102;28;20376;-75
2022/06/30 11:11:20;;;;;;;9.10;5.30;;;28.60;12.80;;;;;;5074153;28;20379;-75
2022/06/30 11:13:46;;;;;;;7.97;4.80;;;28.60;12.30;;;;;;5075735;28;20394;-75
2022/06/30 11:16:15;;;;;;;8.95;5.00;;;28.70;13.40;;;;;;5072744;28;20433;-75
2022/06/30 11:18:41;;;;;;;8.23;5.00;;;28.60;13.70;;;;;;5091459;28;20403;-75
2022/06/30 11:21:07;;;;;;;9.23;5.10;;;28.40;13.20;;;;;;5091463;28;20395;-75
2022/06/30 11:23:44;;;;;;;9.30;4.60;;;28.60;14.00;;;;;;5088579;28;20395;-74
2022/06/30 11:28:56;;;;;;;7.03;4.30;;;28.60;12.90;;;;;;5083306;28;20508;-75
2022/06/30 11:31:23;;;;;;;8.18;3.85;;;28.40;12.70;;;;;;5082667;28;20414;-75
2022/06/30 11:34:01;;;;;;;8.90;4.30;;;28.70;12.00;;;;;;5080474;28;20391;-75
2022/06/30 11:36:27;;;;;;;9.85;4.50;;;28.70;12.60;;;;;;5067085;28;20400;-75
2022/06/30 11:38:58;;;;;;;10.07;4.17;;;28.60;12.20;;;;;;5081613;28;20387;-74
2022/06/30 11:44:15;;;;;;;10.98;4.57;;;29.50;10.70;;;;;;5082345;28;20414;-75
2022/06/30 11:47:13;;;;;;;5.00;4.00;;;29.60;10.70;;;;;;5083368;28;20380;-75
2022/06/30 11:49:49;;;;;;;7.65;3.70;;;29.70;9.20;;;;;;5083816;28;20383;-75
2022/06/30 11:52:15;;;;;;;9.95;3.63;;;29.60;9.50;;;;;;5083604;28;20379;-75
2022/06/30 11:54:49;;;;;;;10.82;4.30;;;29.60;9.10;;;;;;5081087;28;20462;-75
2022/06/30 11:57:16;;;;;;;9.02;4.50;;;29.80;8.70;;;;;;5077193;28;20379;-75
2022/06/30 11:59:46;;;;;;;8.10;3.50;;;30.20;9.50;;;;;;5059667;28;20388;-75
2022/06/30 12:02:13;;;;;;;10.85;3.90;;;30.10;7.30;;;;;;5077355;28;20437;-74
2022/06/30 12:04:42;;;;;;;7.90;4.07;;;30.00;9.30;;;;;;5076802;28;20400;-74
2022/06/30 12:07:10;;;;;;;8.32;4.38;;;30.00;8.80;;;;;;5059199;28;20445;-75
2022/06/30 12:09:36;;;;;;;8.63;4.43;;;29.50;9.90;;;;;;5059325;28;20376;-74
2022/06/30 12:12:03;;;;;;;5.40;4.50;;;29.50;9.90;;;;;;5076288;28;20375;-74
2022/06/30 12:14:33;;;;;;;7.83;4.43;;;29.10;9.60;;;;;;5058661;28;20383;-75
2022/06/30 12:16:58;;;;;;;9.88;4.38;;;29.10;9.60;;;;;;5076263;28;20383;-74
2022/06/30 12:19:25;;;;;;;6.97;4.10;;;29.40;9.00;;;;;;5074834;28;20750;-75
2022/06/30 12:21:52;;;;;;;9.40;5.18;;;29.80;8.70;;;;;;5077339;28;20418;-73
2022/06/30 12:24:19;;;;;;;6.95;4.60;;;30.00;10.00;;;;;;5058782;28;20400;-76
2022/06/30 12:27:00;;;;;;;6.82;4.45;;;30.20;9.00;;;;;;5058355;28;20771;-75
2022/06/30 12:29:27;;;;;;;9.82;4.80;;;30.40;8.30;;;;;;5077343;28;20383;-75
2022/06/30 12:32:03;;;;;;;10.48;4.78;;;30.40;9.00;;;;;;5058557;28;20694;-73
2022/06/30 12:34:30;;;;;;;10.75;4.70;;;30.00;11.00;;;;;;5058777;28;20874;-75
2022/06/30 12:37:00;;;;;;;8.10;4.80;;;29.80;10.50;;;;;;5076169;28;20418;-74
2022/06/30 12:39:26;;;;;;;8.45;4.68;;;29.60;10.00;;;;;;5076277;28;20391;-73
2022/06/30 12:42:06;;;;;;;8.23;4.60;;;29.40;11.20;;;;;;5075580;28;20384;-74
2022/06/30 12:44:37;;;;;;;6.70;4.50;;;29.30;10.60;;;;;;5077608;28;20490;-75
2022/06/30 12:47:05;;;;;;;8.55;4.43;;;29.30;10.70;;;;;;5076736;28;20493;-74
2022/06/30 12:49:31;;;;;;;12.48;5.18;;;29.40;10.00;;;;;;5058496;28;20380;-75
2022/06/30 12:51:57;;;;;;;14.27;5.25;;;29.50;11.30;;;;;;5056819;28;20395;-73
2022/06/30 12:54:24;;;;;;;12.88;5.65;;;29.40;11.40;;;;;;5057925;28;20391;-75
2022/06/30 12:56:50;;;;;;;11.10;5.40;;;29.40;11.10;;;;;;5075175;28;20387;-76